Time;durP1;ratioP1;P1;durP2;ratioP2;P2;SDS_P1;SDS_P2;PMS_P1;PMS_P2;Temp;Humidity;BMP_temperature;BMP_pressure;BME280_temperature;BME280_humidity;BME280_pressure;Samples;Min_cycle;Max_cycle;Signal;HPM_P1;HPM_P2
2023/09/01 00:01:12;;;;;;;11.05;5.05;;;;;;;19.20;58.96;95058.94;5061135;28;20201;-67
2023/09/01 00:03:39;;;;;;;12.27;4.55;;;;;;;19.06;59.12;95059.81;5078492;28;20197;-67
2023/09/01 00:06:12;;;;;;;6.03;4.72;;;;;;;19.00;59.48;95065.06;5060978;28;20189;-67
2023/09/01 00:08:38;;;;;;;6.80;4.75;;;;;;;18.98;59.41;95064.66;5060923;28;20193;-67
2023/09/01 00:11:05;;;;;;;6.00;3.92;;;;;;;19.02;59.28;95077.81;5078375;28;20193;-67
2023/09/01 00:13:33;;;;;;;4.88;4.10;;;;;;;18.82;59.77;95078.34;5078401;28;20222;-67
2023/09/01 00:16:00;;;;;;;6.00;3.53;;;;;;;18.69;60.32;95075.16;5060626;28;20225;-67
2023/09/01 00:18:27;;;;;;;5.53;3.88;;;;;;;18.70;60.30;95076.75;5078319;28;20213;-67
2023/09/01 00:20:58;;;;;;;6.47;4.45;;;;;;;18.73;60.13;95084.34;5060762;28;20185;-67
2023/09/01 00:23:25;;;;;;;6.53;4.82;;;;;;;18.85;60.01;95085.91;5078185;28;20238;-67
2023/09/01 00:25:53;;;;;;;7.32;4.88;;;;;;;18.89;59.76;95083.88;5060717;28;20193;-67
2023/09/01 00:28:20;;;;;;;7.47;5.10;;;;;;;18.93;59.74;95087.47;5060451;28;20536;-67
2023/09/01 00:30:56;;;;;;;9.10;4.93;;;;;;;18.97;59.77;95088.22;5078038;28;20228;-67
2023/09/01 00:33:24;;;;;;;5.85;4.60;;;;;;;18.93;59.81;95075.50;5077987;28;20193;-67
2023/09/01 00:35:52;;;;;;;8.00;5.47;;;;;;;18.83;60.17;95085.50;5077041;28;20223;-67
2023/09/01 00:38:19;;;;;;;7.80;5.70;;;;;;;18.85;60.12;95077.53;5060301;28;20204;-67
2023/09/01 00:40:47;;;;;;;8.50;5.75;;;;;;;18.87;59.93;95077.91;5060270;28;20204;-67
2023/09/01 00:43:14;;;;;;;7.05;5.22;;;;;;;18.92;60.07;95080.28;5078126;28;20289;-67
2023/09/01 00:45:41;;;;;;;7.72;4.95;;;;;;;18.94;60.01;95085.47;5056324;28;20236;-67
2023/09/01 00:48:09;;;;;;;8.80;5.38;;;;;;;18.95;60.04;95081.44;5057699;28;20194;-67
2023/09/01 00:50:37;;;;;;;6.25;4.80;;;;;;;18.93;59.79;95086.66;5056381;28;20189;-67
2023/09/01 00:53:05;;;;;;;6.35;4.60;;;;;;;18.84;60.21;95080.72;5057452;28;20245;-67
2023/09/01 00:55:32;;;;;;;6.03;4.40;;;;;;;18.80;60.43;95086.31;5056800;28;20190;-67
2023/09/01 00:58:00;;;;;;;4.80;4.05;;;;;;;18.81;60.86;95076.75;5057285;28;20277;-67
2023/09/01 01:00:27;;;;;;;6.85;3.85;;;;;;;18.81;60.73;95082.34;5057046;28;20510;-67
2023/09/01 01:02:54;;;;;;;5.78;3.92;;;;;;;18.83;60.59;95084.72;5056481;28;20190;-67
2023/09/01 01:05:28;;;;;;;4.40;3.53;;;;;;;18.81;60.89;95082.34;5056882;28;20210;-67
2023/09/01 01:08:02;;;;;;;4.03;3.20;;;;;;;18.81;60.87;95081.50;5057063;28;20182;-67
2023/09/01 01:10:34;;;;;;;5.80;3.60;;;;;;;18.83;60.87;95076.34;5056428;28;20202;-67
2023/09/01 01:13:06;;;;;;;5.00;3.25;;;;;;;18.85;60.67;95077.53;5057289;28;20185;-67
2023/09/01 01:15:33;;;;;;;5.10;3.40;;;;;;;18.79;61.15;95079.13;5056257;28;20190;-67
2023/09/01 01:18:01;;;;;;;4.30;3.38;;;;;;;18.67;61.19;95082.38;5072992;28;20247;-67
2023/09/01 01:20:32;;;;;;;6.03;3.40;;;;;;;18.45;61.66;95081.66;5055836;28;20198;-67
2023/09/01 01:23:10;;;;;;;5.32;3.35;;;;;;;18.41;61.74;95075.25;5056570;28;20362;-67
2023/09/01 01:25:37;;;;;;;3.90;3.10;;;;;;;18.35;61.93;95076.88;5057008;28;20236;-67
2023/09/01 01:28:08;;;;;;;4.80;3.28;;;;;;;18.32;62.02;95078.47;5056211;28;20198;-67
2023/09/01 01:30:35;;;;;;;4.07;3.42;;;;;;;18.35;62.17;95082.47;5055926;28;20201;-67
2023/09/01 01:33:01;;;;;;;3.67;3.30;;;;;;;18.35;62.15;95083.25;5056818;28;20190;-67
2023/09/01 01:35:35;;;;;;;5.18;3.30;;;;;;;18.36;62.10;95082.03;5056622;28;20567;-67
2023/09/01 01:38:09;;;;;;;4.00;3.20;;;;;;;18.41;62.15;95076.06;5055542;28;20605;-68
2023/09/01 01:40:38;;;;;;;4.50;3.20;;;;;;;18.41;61.80;95078.84;5055791;28;20197;-68
2023/09/01 01:43:08;;;;;;;5.55;3.00;;;;;;;18.39;61.88;95075.66;5056919;28;20269;-67
2023/09/01 01:45:35;;;;;;;5.95;3.22;;;;;;;18.38;61.83;95070.50;5055510;28;20229;-67
2023/09/01 01:48:02;;;;;;;5.20;3.33;;;;;;;18.39;61.90;95072.88;5056628;28;20193;-67
2023/09/01 01:50:29;;;;;;;3.72;3.10;;;;;;;18.34;61.97;95076.09;5056482;28;20259;-67
2023/09/01 01:52:56;;;;;;;5.20;3.47;;;;;;;18.31;62.20;95076.88;5056101;28;20202;-67
2023/09/01 01:55:24;;;;;;;4.28;3.03;;;;;;;18.33;62.45;95071.69;5056631;28;20201;-66
2023/09/01 01:57:50;;;;;;;3.72;3.35;;;;;;;18.34;62.61;95072.47;5056163;28;20680;-66
2023/09/01 02:00:18;;;;;;;3.50;2.95;;;;;;;18.34;62.38;95067.72;5056357;28;20178;-66
2023/09/01 02:02:45;;;;;;;3.40;3.15;;;;;;;18.34;62.46;95069.69;5055072;28;20202;-66
2023/09/01 02:05:13;;;;;;;3.72;2.90;;;;;;;18.35;62.66;95071.28;5056289;28;20185;-66
2023/09/01 02:07:39;;;;;;;3.67;3.22;;;;;;;18.35;62.35;95065.72;5056245;28;20268;-67
2023/09/01 02:10:07;;;;;;;3.88;2.75;;;;;;;18.34;62.33;95067.72;5055368;28;20194;-67
2023/09/01 02:12:35;;;;;;;4.78;3.03;;;;;;;18.33;62.38;95068.88;5055108;28;20255;-66
2023/09/01 02:15:03;;;;;;;3.40;2.90;;;;;;;18.29;62.51;95071.69;5056119;28;20201;-67
2023/09/01 02:17:30;;;;;;;3.58;3.17;;;;;;;18.25;62.49;95084.06;5055748;28;20541;-67
2023/09/01 02:19:57;;;;;;;3.75;3.00;;;;;;;18.25;62.37;95090.44;5056013;28;20182;-67
2023/09/01 02:22:23;;;;;;;4.22;3.25;;;;;;;18.24;62.52;95088.84;5054676;28;20189;-67
2023/09/01 02:24:50;;;;;;;4.88;3.22;;;;;;;18.20;62.42;95078.91;5055600;28;20190;-66
2023/09/01 02:27:17;;;;;;;5.25;3.20;;;;;;;18.20;62.22;95081.69;5055950;28;20182;-66
2023/09/01 02:29:45;;;;;;;3.58;3.20;;;;;;;18.16;62.39;95078.91;5055188;28;20193;-67
2023/09/01 02:32:12;;;;;;;3.92;3.08;;;;;;;18.16;62.26;95078.91;5054910;28;20198;-66
2023/09/01 02:34:38;;;;;;;4.53;3.20;;;;;;;18.12;62.26;95080.09;5055769;28;20197;-67
2023/09/01 02:37:05;;;;;;;4.32;3.15;;;;;;;18.10;62.36;95079.72;5054954;28;20213;-67
2023/09/01 02:39:32;;;;;;;3.75;3.10;;;;;;;18.08;62.27;95085.69;5054870;28;20293;-67
2023/09/01 02:42:01;;;;;;;4.97;3.03;;;;;;;18.10;62.31;95085.31;5055593;28;20205;-67
2023/09/01 02:44:28;;;;;;;3.42;2.70;;;;;;;18.10;62.44;95074.13;5059824;28;20253;-68
2023/09/01 02:46:56;;;;;;;3.65;3.03;;;;;;;18.08;62.45;95074.53;5058340;28;20250;-68
2023/09/01 02:49:22;;;;;;;3.85;2.90;;;;;;;18.08;63.13;95082.09;5075168;28;20224;-67
2023/09/01 02:51:49;;;;;;;5.30;2.97;;;;;;;18.06;62.50;95076.94;5074801;28;20185;-68
2023/09/01 02:54:16;;;;;;;5.80;3.30;;;;;;;18.03;62.63;95081.31;5074983;28;20555;-68
2023/09/01 02:56:43;;;;;;;6.18;3.08;;;;;;;17.90;62.57;95074.56;5057864;28;20221;-68
2023/09/01 02:59:10;;;;;;;3.42;3.08;;;;;;;17.72;63.26;95076.50;5075153;28;20254;-68
2023/09/01 03:01:36;;;;;;;3.33;2.80;;;;;;;17.69;63.25;95080.13;5058003;28;20201;-68
2023/09/01 03:04:06;;;;;;;3.95;3.00;;;;;;;17.71;63.53;95081.31;5057872;28;20200;-66
2023/09/01 03:06:34;;;;;;;3.75;3.45;;;;;;;17.72;63.54;95085.72;5075278;28;20177;-66
2023/09/01 03:09:02;;;;;;;4.72;3.20;;;;;;;17.72;63.33;95080.13;5074724;28;20193;-67
2023/09/01 03:11:29;;;;;;;4.90;3.13;;;;;;;17.72;63.44;95085.72;5075289;28;20208;-66
2023/09/01 03:13:56;;;;;;;4.05;2.90;;;;;;;17.72;63.81;95087.69;5057739;28;20200;-66
2023/09/01 03:16:23;;;;;;;5.80;3.30;;;;;;;17.74;63.36;95088.88;5074814;28;20213;-67
2023/09/01 03:18:52;;;;;;;5.15;3.53;;;;;;;17.77;63.65;95088.13;5075292;28;20525;-67
2023/09/01 03:21:20;;;;;;;4.35;3.50;;;;;;;17.79;63.58;95091.31;5057979;28;20578;-67
2023/09/01 03:23:47;;;;;;;3.63;3.15;;;;;;;17.75;63.48;95095.25;5074743;28;20609;-67
2023/09/01 03:26:14;;;;;;;5.07;3.13;;;;;;;17.73;63.35;95097.66;5074987;28;20201;-67
2023/09/01 03:28:41;;;;;;;4.50;3.20;;;;;;;17.71;63.65;95100.03;5075009;28;20189;-67
2023/09/01 03:31:12;;;;;;;4.95;3.10;;;;;;;17.68;63.52;95098.03;5057507;28;20240;-67
2023/09/01 03:33:38;;;;;;;4.13;2.67;;;;;;;17.65;63.38;95094.06;5075079;28;20189;-68
2023/09/01 03:36:07;;;;;;;3.25;2.95;;;;;;;17.63;63.24;95099.25;5057521;28;20204;-67
2023/09/01 03:38:36;;;;;;;4.80;3.58;;;;;;;17.58;63.42;95099.66;5074912;28;20197;-67
2023/09/01 03:41:02;;;;;;;4.28;3.10;;;;;;;17.55;63.79;95095.66;5074969;28;20185;-67
2023/09/01 03:43:29;;;;;;;3.72;3.30;;;;;;;17.56;64.19;95093.66;5075108;28;20197;-67
2023/09/01 03:45:57;;;;;;;5.05;3.15;;;;;;;17.56;63.86;95099.22;5070629;28;20245;-67
2023/09/01 03:48:24;;;;;;;4.85;3.60;;;;;;;17.56;64.00;95096.44;5054824;28;20263;-67
2023/09/01 03:51:05;;;;;;;5.97;3.63;;;;;;;17.57;63.80;95100.81;5053888;28;20206;-67
2023/09/01 03:53:32;;;;;;;5.95;3.40;;;;;;;17.58;63.57;95093.28;5070962;28;20186;-68
2023/09/01 03:56:03;;;;;;;6.07;3.92;;;;;;;17.57;63.36;95100.81;5053827;28;20206;-67
2023/09/01 03:58:30;;;;;;;5.63;4.35;;;;;;;17.56;63.32;95105.59;5053892;28;20613;-67
2023/09/01 04:00:56;;;;;;;6.65;3.80;;;;;;;17.53;64.06;95108.38;5055846;28;20268;-66
2023/09/01 04:03:23;;;;;;;5.25;4.43;;;;;;;17.52;63.82;95102.03;5054097;28;20208;-66
2023/09/01 04:05:50;;;;;;;6.15;4.65;;;;;;;17.55;64.09;95100.44;5054464;28;20247;-67
2023/09/01 04:08:17;;;;;;;8.05;4.90;;;;;;;17.53;63.97;95105.59;5053376;28;20576;-67
2023/09/01 04:10:45;;;;;;;6.35;4.32;;;;;;;17.45;64.01;95104.00;5054664;28;20205;-67
2023/09/01 04:13:13;;;;;;;5.55;4.90;;;;;;;17.43;64.08;95115.56;5054294;28;20238;-67
2023/09/01 04:15:40;;;;;;;7.50;4.55;;;;;;;17.48;64.25;95117.94;5053896;28;20209;-67
2023/09/01 04:18:07;;;;;;;7.47;4.63;;;;;;;17.50;64.24;95121.16;5053536;28;20224;-68
2023/09/01 04:20:33;;;;;;;6.75;4.18;;;;;;;17.53;64.23;95125.13;5053282;28;20205;-68
2023/09/01 04:23:00;;;;;;;8.90;5.25;;;;;;;17.51;63.80;95128.31;5053762;28;20202;-68
2023/09/01 04:25:27;;;;;;;8.65;4.88;;;;;;;17.52;64.12;95126.31;5054328;28;20520;-68
2023/09/01 04:27:53;;;;;;;5.82;4.38;;;;;;;17.49;63.88;95127.91;5057305;28;20190;-68
2023/09/01 04:30:22;;;;;;;8.90;5.10;;;;;;;17.44;64.42;95119.94;5057597;28;20205;-68
2023/09/01 04:32:49;;;;;;;6.75;4.82;;;;;;;17.41;64.55;95125.50;5057498;28;20556;-68
2023/09/01 04:35:15;;;;;;;9.38;5.00;;;;;;;17.43;64.25;95126.72;5057258;28;20193;-68
2023/09/01 04:37:43;;;;;;;6.18;4.88;;;;;;;17.45;64.62;95132.69;5040384;28;20277;-68
2023/09/01 04:40:11;;;;;;;7.93;4.72;;;;;;;17.48;64.59;95133.88;5057004;28;20555;-68
2023/09/01 04:42:37;;;;;;;9.60;5.13;;;;;;;17.50;64.46;95134.28;5057936;28;20210;-68
2023/09/01 04:45:05;;;;;;;7.97;4.70;;;;;;;17.51;64.53;95136.69;5056861;28;20236;-68
2023/09/01 04:47:33;;;;;;;7.82;4.82;;;;;;;17.53;65.16;95133.47;5057993;28;20190;-68
2023/09/01 04:50:02;;;;;;;6.68;4.35;;;;;;;17.59;65.10;95134.69;5057433;28;20182;-68
2023/09/01 04:52:29;;;;;;;6.70;4.75;;;;;;;17.67;65.13;95143.88;5056410;28;20198;-68
2023/09/01 04:54:55;;;;;;;9.23;5.47;;;;;;;17.68;64.93;95142.66;5056601;28;20204;-68
2023/09/01 04:57:22;;;;;;;6.63;3.60;;;;;;;17.72;64.98;95147.06;5057581;28;20209;-68
2023/09/01 04:59:50;;;;;;;6.07;3.70;;;;;;;17.78;64.98;95151.06;5056701;28;20202;-68
2023/09/01 05:02:18;;;;;;;5.50;3.60;;;;;;;17.86;64.60;95159.44;5057500;28;20267;-68
2023/09/01 05:04:47;;;;;;;6.43;3.75;;;;;;;17.87;64.66;95161.84;5057198;28;20211;-68
2023/09/01 05:07:14;;;;;;;5.15;3.70;;;;;;;17.93;64.78;95165.03;5057263;28;20174;-68
2023/09/01 05:09:40;;;;;;;6.07;3.95;;;;;;;17.96;64.53;95161.44;5057053;28;20513;-68
2023/09/01 05:12:08;;;;;;;6.65;3.97;;;;;;;17.95;64.79;95159.88;5056423;28;20201;-68
2023/09/01 05:14:35;;;;;;;5.93;4.40;;;;;;;17.95;64.84;95171.03;5056944;28;20276;-68
2023/09/01 05:17:02;;;;;;;6.25;4.10;;;;;;;17.95;64.65;95168.22;5057068;28;20209;-68
2023/09/01 05:19:29;;;;;;;5.20;4.13;;;;;;;17.95;64.36;95179.41;5056888;28;20615;-68
2023/09/01 05:21:57;;;;;;;7.28;4.35;;;;;;;17.96;64.55;95178.19;5057156;28;20235;-68
2023/09/01 05:24:24;;;;;;;5.75;4.28;;;;;;;17.97;64.54;95183.38;5056048;28;20201;-68
2023/09/01 05:26:51;;;;;;;8.43;4.75;;;;;;;17.99;64.19;95180.19;5056842;28;20190;-68
2023/09/01 05:29:17;;;;;;;5.53;4.50;;;;;;;18.06;64.60;95182.19;5056369;28;20204;-68
2023/09/01 05:31:44;;;;;;;6.78;4.55;;;;;;;18.10;64.41;95181.00;5058051;28;20284;-68
2023/09/01 05:34:11;;;;;;;6.70;5.00;;;;;;;18.15;64.50;95179.78;5056993;28;20201;-68
2023/09/01 05:36:38;;;;;;;6.60;4.60;;;;;;;18.20;64.46;95182.19;5056069;28;20194;-68
2023/09/01 05:39:07;;;;;;;5.90;3.97;;;;;;;18.19;64.21;95177.78;5056441;28;20263;-68
2023/09/01 05:41:34;;;;;;;5.63;4.05;;;;;;;18.20;64.52;95176.59;5056691;28;20625;-68
2023/09/01 05:44:01;;;;;;;5.40;4.05;;;;;;;18.23;64.57;95184.19;5073729;28;20197;-68
2023/09/01 05:46:27;;;;;;;4.22;3.83;;;;;;;18.28;64.63;95181.78;5075725;28;20613;-68
2023/09/01 05:48:54;;;;;;;7.22;4.10;;;;;;;18.35;64.66;95186.56;5059047;28;20200;-68
2023/09/01 05:51:21;;;;;;;6.05;3.90;;;;;;;18.36;64.88;95188.16;5075621;28;20251;-68
2023/09/01 05:53:47;;;;;;;5.43;3.83;;;;;;;18.39;64.84;95187.34;5058810;28;20193;-68
2023/09/01 05:56:16;;;;;;;5.85;3.80;;;;;;;18.48;64.79;95186.94;5058793;28;20208;-68
2023/09/01 05:58:42;;;;;;;5.57;4.18;;;;;;;18.51;65.08;95184.13;5076102;28;20209;-68
2023/09/01 06:01:09;;;;;;;5.28;3.83;;;;;;;18.49;65.02;95183.75;5059084;28;20262;-68
2023/09/01 06:03:36;;;;;;;5.93;3.95;;;;;;;18.52;64.95;95180.16;5059022;28;20201;-68
2023/09/01 06:06:02;;;;;;;4.47;3.50;;;;;;;18.52;65.03;95177.38;5075953;28;20593;-68
2023/09/01 06:08:29;;;;;;;4.32;3.53;;;;;;;18.56;65.06;95176.56;5058613;28;20613;-68
2023/09/01 06:11:04;;;;;;;5.65;3.60;;;;;;;18.62;64.95;95180.53;5058767;28;20189;-68
2023/09/01 06:13:32;;;;;;;6.03;3.20;;;;;;;18.67;64.60;95183.72;5058660;28;20199;-68
2023/09/01 06:15:59;;;;;;;3.80;3.50;;;;;;;18.67;64.16;95188.50;5058627;28;20250;-68
2023/09/01 06:18:26;;;;;;;4.20;3.25;;;;;;;18.69;64.61;95186.09;5075525;28;20227;-68
2023/09/01 06:20:52;;;;;;;4.93;2.97;;;;;;;18.72;64.45;95190.91;5076386;28;20198;-68
2023/09/01 06:23:19;;;;;;;5.10;4.22;;;;;;;18.75;64.77;95190.91;5075861;28;20185;-68
2023/09/01 06:25:46;;;;;;;5.65;4.40;;;;;;;18.76;64.53;95195.28;5074847;28;20201;-68
2023/09/01 06:28:13;;;;;;;3.60;2.95;;;;;;;18.78;64.50;95196.91;5058331;28;20197;-68
2023/09/01 06:30:41;;;;;;;3.97;3.30;;;;;;;18.82;64.70;95200.47;5057933;28;20577;-68
2023/09/01 06:33:09;;;;;;;4.03;3.53;;;;;;;18.81;64.39;95194.09;5058485;28;20197;-68
2023/09/01 06:35:36;;;;;;;5.07;3.55;;;;;;;18.83;64.55;95200.06;5058434;28;20247;-68
2023/09/01 06:38:05;;;;;;;5.28;3.58;;;;;;;18.90;64.34;95202.06;5075326;28;20208;-68
2023/09/01 06:40:32;;;;;;;4.43;3.38;;;;;;;18.94;64.40;95203.63;5058034;28;20200;-69
2023/09/01 06:42:59;;;;;;;5.35;3.38;;;;;;;18.98;64.54;95206.41;5075755;28;20197;-68
2023/09/01 06:45:26;;;;;;;5.43;4.10;;;;;;;19.04;64.39;95209.59;5075196;28;20242;-68
2023/09/01 06:47:56;;;;;;;4.97;3.45;;;;;;;19.07;64.31;95206.78;5075483;28;20597;-69
2023/09/01 06:50:25;;;;;;;4.88;3.30;;;;;;;19.07;64.30;95211.59;5075048;28;20186;-68
2023/09/01 06:52:52;;;;;;;5.22;3.97;;;;;;;19.10;64.27;95208.78;5075482;28;20196;-69
2023/09/01 06:55:18;;;;;;;4.55;4.10;;;;;;;19.15;64.58;95211.16;5075139;28;20247;-68
2023/09/01 06:57:45;;;;;;;3.75;3.45;;;;;;;19.23;64.14;95215.50;5075230;28;20224;-68
2023/09/01 07:00:14;;;;;;;5.22;3.53;;;;;;;19.32;64.37;95217.06;5075020;28;20204;-69
2023/09/01 07:02:41;;;;;;;5.25;3.35;;;;;;;19.35;64.20;95214.25;5057304;28;20209;-68
2023/09/01 07:05:10;;;;;;;5.90;4.05;;;;;;;19.39;64.13;95215.06;5075287;28;20196;-68
2023/09/01 07:07:37;;;;;;;4.38;3.70;;;;;;;19.42;63.89;95222.63;5075271;28;20181;-69
2023/09/01 07:10:04;;;;;;;3.90;3.28;;;;;;;19.50;63.76;95223.41;5074989;28;20189;-69
2023/09/01 07:12:31;;;;;;;4.20;3.67;;;;;;;19.56;64.01;95223.75;5057536;28;20288;-68
2023/09/01 07:14:58;;;;;;;5.28;3.95;;;;;;;19.60;64.05;95221.75;5057243;28;20197;-69
2023/09/01 07:17:25;;;;;;;4.47;3.90;;;;;;;19.62;63.52;95230.53;5074142;28;20565;-69
2023/09/01 07:19:52;;;;;;;3.85;3.35;;;;;;;19.66;63.54;95229.34;5075208;28;20247;-69
2023/09/01 07:22:20;;;;;;;4.53;3.40;;;;;;;19.72;63.97;95221.31;5057389;28;20205;-68
2023/09/01 07:24:47;;;;;;;4.55;3.58;;;;;;;19.75;63.92;95231.66;5057324;28;20194;-68
2023/09/01 07:27:13;;;;;;;4.68;3.72;;;;;;;19.78;63.80;95225.25;5075065;28;20185;-68
2023/09/01 07:29:40;;;;;;;6.40;4.05;;;;;;;19.82;64.13;95214.84;5057078;28;20211;-68
2023/09/01 07:32:07;;;;;;;6.78;4.28;;;;;;;19.90;63.79;95226.81;5075137;28;20178;-69
2023/09/01 07:34:34;;;;;;;4.53;3.50;;;;;;;19.92;63.29;95216.78;5074729;28;20177;-68
2023/09/01 07:37:01;;;;;;;4.13;3.70;;;;;;;19.95;62.62;95215.16;5074048;28;20200;-69
2023/09/01 07:39:29;;;;;;;4.28;3.58;;;;;;;20.00;62.41;95217.53;5074116;28;20220;-68
2023/09/01 07:41:56;;;;;;;3.50;3.20;;;;;;;20.07;62.50;95213.88;5057269;28;20201;-68
2023/09/01 07:44:22;;;;;;;4.10;3.53;;;;;;;20.18;62.25;95218.19;5074465;28;20249;-69
2023/09/01 07:46:49;;;;;;;3.33;3.00;;;;;;;20.36;61.66;95215.25;5057698;28;20201;-69
2023/09/01 07:49:16;;;;;;;3.75;3.38;;;;;;;20.46;61.47;95213.56;5074834;28;20181;-69
2023/09/01 07:51:44;;;;;;;5.38;3.30;;;;;;;20.56;61.14;95220.34;5074142;28;20204;-68
2023/09/01 07:54:10;;;;;;;6.07;3.60;;;;;;;20.63;60.69;95217.47;5074866;28;20200;-69
2023/09/01 07:56:39;;;;;;;3.60;3.22;;;;;;;20.71;59.87;95218.19;5074735;28;20196;-69
2023/09/01 07:59:05;;;;;;;4.93;3.55;;;;;;;20.76;59.66;95220.53;5074687;28;20217;-68
2023/09/01 08:01:32;;;;;;;3.95;3.58;;;;;;;20.83;59.78;95214.84;5059049;28;20247;-69
2023/09/01 08:03:59;;;;;;;3.88;3.42;;;;;;;20.91;59.08;95216.38;5060943;28;20204;-69
2023/09/01 08:06:26;;;;;;;4.47;3.97;;;;;;;20.92;58.79;95221.56;5078263;28;20189;-68
2023/09/01 08:08:53;;;;;;;5.07;4.22;;;;;;;20.98;58.21;95221.91;5061560;28;20334;-69
2023/09/01 08:11:20;;;;;;;4.15;3.85;;;;;;;21.00;57.88;95211.09;5078417;28;20189;-68
2023/09/01 08:13:48;;;;;;;4.22;3.83;;;;;;;21.04;57.69;95217.44;5060794;28;20201;-69
2023/09/01 08:16:15;;;;;;;5.57;4.07;;;;;;;21.09;58.01;95219.78;5078238;28;20215;-69
2023/09/01 08:18:42;;;;;;;4.38;3.85;;;;;;;21.17;57.88;95214.91;5061165;28;20221;-68
2023/09/01 08:21:09;;;;;;;5.30;4.28;;;;;;;21.26;57.14;95220.78;5061008;28;20197;-68
2023/09/01 08:23:36;;;;;;;3.83;3.53;;;;;;;21.32;57.23;95216.31;5060738;28;20193;-68
2023/09/01 08:26:05;;;;;;;5.05;3.78;;;;;;;21.47;57.08;95207.75;5078105;28;20198;-68
2023/09/01 08:28:32;;;;;;;4.32;3.92;;;;;;;21.66;57.53;95212.72;5077838;28;20196;-68
2023/09/01 08:31:02;;;;;;;5.38;4.80;;;;;;;21.82;56.96;95209.28;5078453;28;20245;-68
2023/09/01 08:33:29;;;;;;;3.97;3.28;;;;;;;21.96;56.02;95209.06;5060683;28;20193;-68
2023/09/01 08:35:55;;;;;;;4.95;4.28;;;;;;;22.07;56.06;95206.09;5078008;28;20201;-68
2023/09/01 08:38:23;;;;;;;5.38;4.55;;;;;;;22.14;55.66;95202.41;5060224;28;20224;-68
2023/09/01 08:40:49;;;;;;;3.85;3.53;;;;;;;22.22;54.92;95199.09;5060542;28;20196;-68
2023/09/01 08:43:16;;;;;;;4.30;3.90;;;;;;;22.39;54.03;95200.00;5076960;28;20197;-68
2023/09/01 08:45:43;;;;;;;5.05;4.20;;;;;;;22.58;53.26;95195.69;5077496;28;20225;-68
2023/09/01 08:48:12;;;;;;;4.78;4.30;;;;;;;22.69;52.39;95199.09;5060362;28;20201;-68
2023/09/01 08:50:39;;;;;;;5.00;4.57;;;;;;;22.75;51.90;95203.00;5076835;28;20208;-68
2023/09/01 08:53:06;;;;;;;4.90;4.38;;;;;;;22.81;51.94;95197.69;5077517;28;20190;-68
2023/09/01 08:55:33;;;;;;;5.63;4.35;;;;;;;22.87;51.88;95204.41;5060430;28;20258;-68
2023/09/01 08:58:00;;;;;;;4.88;4.35;;;;;;;22.98;51.51;95196.59;5077538;28;20193;-68
2023/09/01 09:00:26;;;;;;;4.80;4.28;;;;;;;23.15;51.17;95194.66;5059854;28;20189;-68
2023/09/01 09:02:53;;;;;;;4.30;4.00;;;;;;;23.26;50.04;95194.44;5060145;28;20201;-68
2023/09/01 09:05:22;;;;;;;6.15;4.57;;;;;;;23.35;50.01;95196.69;5077507;28;20196;-68
2023/09/01 09:07:58;;;;;;;4.32;3.92;;;;;;;23.43;49.96;95192.50;5077123;28;20247;-68
2023/09/01 09:10:33;;;;;;;4.50;4.20;;;;;;;23.49;49.08;95191.56;5077296;28;20192;-68
2023/09/01 09:13:00;;;;;;;4.53;4.13;;;;;;;23.64;47.65;95186.44;5060060;28;20235;-69
2023/09/01 09:15:27;;;;;;;4.38;3.97;;;;;;;23.66;47.60;95177.53;5059998;28;20624;-68
2023/09/01 09:17:54;;;;;;;4.78;4.28;;;;;;;23.67;47.90;95174.31;5077035;28;20220;-69
2023/09/01 09:20:23;;;;;;;4.32;3.92;;;;;;;23.73;47.48;95183.03;5059546;28;20315;-68
2023/09/01 09:22:51;;;;;;;3.78;3.47;;;;;;;23.77;47.82;95173.28;5077196;28;20189;-68
2023/09/01 09:25:25;;;;;;;4.30;3.90;;;;;;;23.89;47.52;95182.28;5077076;28;20185;-68
2023/09/01 09:27:51;;;;;;;4.80;3.55;;;;;;;23.99;46.74;95169.97;5076999;28;20197;-69
2023/09/01 09:30:18;;;;;;;4.50;3.80;;;;;;;24.11;46.06;95171.31;5058965;28;20535;-68
2023/09/01 09:32:45;;;;;;;4.20;3.80;;;;;;;24.23;46.51;95173.44;5076967;28;20180;-69
2023/09/01 09:35:13;;;;;;;4.45;4.05;;;;;;;24.33;45.29;95163.94;5059457;28;20232;-68
2023/09/01 09:37:42;;;;;;;4.28;3.88;;;;;;;24.38;45.43;95171.06;5076665;28;20224;-68
2023/09/01 09:40:14;;;;;;;3.78;3.38;;;;;;;24.43;44.52;95170.56;5059151;28;20212;-68
2023/09/01 09:42:44;;;;;;;4.03;3.63;;;;;;;24.48;45.26;95159.56;5076979;28;20251;-68
2023/09/01 09:45:29;;;;;;;4.25;3.78;;;;;;;24.58;45.21;95163.31;5076287;28;20233;-68
2023/09/01 09:47:57;;;;;;;3.90;3.50;;;;;;;24.70;44.71;95161.84;5076700;28;20197;-68
2023/09/01 09:50:25;;;;;;;5.28;4.22;;;;;;;24.76;44.84;95164.88;5076558;28;20181;-68
2023/09/01 09:52:57;;;;;;;4.50;3.80;;;;;;;24.78;44.27;95162.44;5059427;28;20185;-69
2023/09/01 09:55:26;;;;;;;4.75;4.15;;;;;;;24.91;43.43;95163.28;5076167;28;20586;-68
2023/09/01 09:57:57;;;;;;;4.70;4.20;;;;;;;25.01;43.21;95161.41;5058880;28;20204;-68
2023/09/01 10:00:25;;;;;;;5.07;4.28;;;;;;;25.14;42.18;95153.81;5058783;28;20221;-68
2023/09/01 10:02:54;;;;;;;7.10;4.45;;;;;;;25.23;42.05;95144.69;5058714;28;20204;-68
2023/09/01 10:05:22;;;;;;;4.35;3.95;;;;;;;25.23;40.50;95145.47;5058799;28;20258;-68
2023/09/01 10:07:50;;;;;;;4.30;3.83;;;;;;;25.18;41.99;95146.81;5058736;28;20197;-68
2023/09/01 10:10:18;;;;;;;4.88;3.90;;;;;;;25.24;42.49;95143.44;5075231;28;20606;-68
2023/09/01 10:12:45;;;;;;;4.95;4.45;;;;;;;25.30;41.96;95145.28;5075890;28;20196;-68
2023/09/01 10:15:13;;;;;;;6.68;3.90;;;;;;;25.36;41.27;95137.84;5058168;28;20208;-68
2023/09/01 10:17:41;;;;;;;4.13;3.72;;;;;;;25.45;41.18;95143.66;5076006;28;20185;-68
2023/09/01 10:20:09;;;;;;;4.53;3.80;;;;;;;25.50;42.10;95145.13;5076016;28;20225;-68
2023/09/01 10:22:38;;;;;;;4.63;4.22;;;;;;;25.52;42.05;95147.47;5058369;28;20201;-68
2023/09/01 10:25:14;;;;;;;5.22;3.85;;;;;;;25.58;40.65;95143.66;5075415;28;20284;-68
2023/09/01 10:28:01;;;;;;;4.30;3.90;;;;;;;25.65;41.22;95146.25;5058614;28;20201;-68
2023/09/01 10:30:30;;;;;;;4.75;3.90;;;;;;;25.73;40.60;95148.88;5058170;28;20315;-68
2023/09/01 10:33:25;;;;;;;3.83;3.60;;;;;;;25.87;40.32;95148.47;5075807;28;20181;-68
2023/09/01 10:35:53;;;;;;;4.50;4.07;;;;;;;25.96;39.85;95144.97;5072776;28;20262;-68
2023/09/01 10:38:22;;;;;;;4.20;3.85;;;;;;;25.99;38.80;95144.84;5058095;28;20196;-68
2023/09/01 10:40:50;;;;;;;4.03;3.72;;;;;;;26.07;39.47;95146.22;5058243;28;20211;-68
2023/09/01 10:43:55;;;;;;;4.22;3.83;;;;;;;26.13;39.38;95143.59;5057961;28;20213;-68
2023/09/01 10:46:26;;;;;;;6.43;4.07;;;;;;;26.19;38.29;95152.31;5030393;28;20286;-68
2023/09/01 10:48:54;;;;;;;4.70;3.50;;;;;;;26.18;38.50;95140.19;5055567;28;20208;-68
2023/09/01 10:51:22;;;;;;;3.97;3.67;;;;;;;26.22;38.85;95135.25;5038031;28;20529;-68
2023/09/01 10:53:51;;;;;;;4.13;3.72;;;;;;;26.37;38.43;95127.88;5055110;28;20569;-68
2023/09/01 10:56:19;;;;;;;5.78;3.67;;;;;;;26.48;38.64;95130.38;5037862;28;20204;-68
2023/09/01 10:58:48;;;;;;;4.45;3.90;;;;;;;26.61;37.96;95133.16;5055370;28;20209;-68
2023/09/01 11:01:36;;;;;;;8.48;4.03;;;;;;;26.60;37.12;95132.38;5055490;28;20220;-68
2023/09/01 11:04:33;;;;;;;4.50;4.10;;;;;;;26.56;36.63;95122.44;5037950;28;20205;-68
2023/09/01 11:07:04;;;;;;;3.80;3.50;;;;;;;26.59;37.75;95119.47;5038249;28;20206;-68
2023/09/01 11:09:51;;;;;;;3.90;3.60;;;;;;;26.69;36.99;95122.38;5038118;28;20208;-68
2023/09/01 11:12:18;;;;;;;4.20;3.85;;;;;;;26.76;36.85;95113.66;5055247;28;20182;-68
2023/09/01 11:14:56;;;;;;;4.28;3.88;;;;;;;26.83;36.56;95114.19;5037528;28;20229;-68
2023/09/01 11:17:49;;;;;;;5.20;3.75;;;;;;;26.85;37.45;95103.22;5037800;28;20193;-68
2023/09/01 11:20:20;;;;;;;4.50;4.10;;;;;;;26.91;36.61;95108.28;5023553;28;20225;-68
2023/09/01 11:22:48;;;;;;;4.30;3.90;;;;;;;26.92;36.03;95105.00;5038266;28;20193;-68
2023/09/01 11:25:16;;;;;;;4.70;3.78;;;;;;;26.87;35.35;95102.75;5055262;28;20194;-68
2023/09/01 11:27:47;;;;;;;5.20;4.75;;;;;;;26.83;35.40;95096.41;5037329;28;20190;-68
2023/09/01 11:30:16;;;;;;;4.75;4.28;;;;;;;26.83;35.84;95093.59;5054945;28;20193;-68
2023/09/01 11:32:43;;;;;;;3.65;3.35;;;;;;;26.89;35.34;95100.25;5054934;28;20251;-68
2023/09/01 11:35:21;;;;;;;4.20;3.72;;;;;;;26.97;35.36;95086.63;5055107;28;20186;-68
2023/09/01 11:37:48;;;;;;;4.45;4.00;;;;;;;26.99;35.16;95081.31;5041571;28;20599;-68
2023/09/01 11:40:14;;;;;;;4.07;3.70;;;;;;;27.05;35.54;95080.28;5041221;28;20224;-68